Thedford, Nebraska
Current Conditions -  °F | °C
As of 9:55 AM on Thursday 23 Oct 2014 (Local Time) from KTIF Reporting Station
Clear Clear  
Wind Chill: 50°   Ceiling: Unl
Heat Index: 50°   Visibility: 10mi
Dew Point: 46°   Wind: 8mph
Humidity: 85%   Direction: 240°WSW
Pressure: 30.09"   Gusts: NA
Location:  41.98°N, 100.58°W
Report Text: KTIF 231455Z AUTO 24007KT 10SM CLR 10/08 A3009 RMK AO2 T01010077
Loading
Personal Weather Stations






























Interactive Weather Map
Tropical Storm Tracking
New forecast layout! Learn more

10-Day Weather Forecast

Advertisements
Track Severe Weather on mobile